Time;durP1;ratioP1;P1;durP2;ratioP2;P2;SDS_P1;SDS_P2;PMS_P1;PMS_P2;Temp;Humidity;BMP_temperature;BMP_pressure;BME280_temperature;BME280_humidity;BME280_pressure;Samples;Min_cycle;Max_cycle;Signal;HPM_P1;HPM_P2
2022/09/16 00:00:07;;;;;;;48.50;31.77;;;12.10;99.90;;;;;;5116785;28;20655;-72
2022/09/16 00:02:34;;;;;;;46.57;31.83;;;12.10;99.90;;;;;;5117241;28;20203;-72
2022/09/16 00:05:00;;;;;;;53.27;32.37;;;12.20;99.90;;;;;;5117430;28;20260;-73
2022/09/16 00:07:29;;;;;;;49.67;32.03;;;12.10;99.90;;;;;;5117167;27;20252;-72
2022/09/16 00:09:56;;;;;;;55.43;34.10;;;12.10;99.90;;;;;;5117094;28;20196;-73
2022/09/16 00:12:22;;;;;;;53.23;33.37;;;12.00;99.90;;;;;;5116958;28;20229;-73
2022/09/16 00:14:49;;;;;;;55.77;34.13;;;12.00;99.90;;;;;;5117198;28;20196;-73
2022/09/16 00:17:15;;;;;;;59.20;35.00;;;12.00;99.90;;;;;;5116804;28;20227;-73
2022/09/16 00:19:42;;;;;;;58.20;35.57;;;12.00;99.90;;;;;;5116685;27;20585;-73
2022/09/16 00:22:09;;;;;;;63.80;35.17;;;12.00;99.90;;;;;;5116525;28;20260;-73
2022/09/16 00:24:37;;;;;;;52.33;34.73;;;12.00;99.90;;;;;;5116650;28;20199;-73
2022/09/16 00:27:04;;;;;;;55.07;35.03;;;12.00;99.90;;;;;;5116397;28;20422;-72
2022/09/16 00:29:30;;;;;;;65.50;35.87;;;12.00;99.90;;;;;;5116580;28;20200;-72
2022/09/16 00:31:57;;;;;;;58.60;34.17;;;12.00;99.90;;;;;;5116406;27;20229;-73
2022/09/16 00:34:23;;;;;;;52.57;34.90;;;12.00;99.90;;;;;;5116488;28;20477;-73
2022/09/16 00:36:50;;;;;;;59.43;36.47;;;12.00;99.90;;;;;;5116294;28;20195;-73
2022/09/16 00:39:17;;;;;;;62.87;36.70;;;12.10;99.90;;;;;;5116099;28;20200;-73
2022/09/16 00:41:45;;;;;;;56.60;34.73;;;12.10;99.90;;;;;;5116421;28;20596;-73
2022/09/16 00:44:45;;;;;;;62.67;36.60;;;12.00;99.90;;;;;;5116305;28;20196;-72
2022/09/16 00:47:13;;;;;;;59.43;34.47;;;12.00;99.90;;;;;;5116203;28;20562;-73
2022/09/16 00:49:40;;;;;;;57.03;34.60;;;12.00;99.90;;;;;;5115969;27;20203;-72
2022/09/16 00:52:07;;;;;;;61.87;36.27;;;12.00;99.90;;;;;;5116124;28;20585;-72
2022/09/16 00:54:37;;;;;;;59.57;36.97;;;12.00;99.90;;;;;;5116111;27;20196;-72
2022/09/16 00:57:09;;;;;;;62.03;37.07;;;12.00;99.90;;;;;;5115618;28;20231;-73
2022/09/16 00:59:38;;;;;;;65.17;38.23;;;12.00;99.90;;;;;;5115710;28;20235;-73
2022/09/16 01:02:10;;;;;;;60.13;35.93;;;12.10;99.90;;;;;;5115102;28;20205;-72
2022/09/16 01:04:41;;;;;;;63.80;37.70;;;12.10;99.90;;;;;;5115685;28;20200;-73
2022/09/16 01:07:08;;;;;;;62.37;36.93;;;12.10;99.90;;;;;;5115824;28;20215;-73
2022/09/16 01:09:35;;;;;;;58.57;35.47;;;12.10;99.90;;;;;;5115558;28;20204;-72
2022/09/16 01:12:02;;;;;;;56.23;34.50;;;12.10;99.90;;;;;;5115545;28;20718;-72
2022/09/16 01:17:24;;;;;;;54.70;32.57;;;12.10;99.90;;;;;;5115750;28;20219;-73
2022/09/16 01:20:06;;;;;;;50.33;32.77;;;12.10;99.90;;;;;;5115455;28;20203;-73
2022/09/16 01:22:51;;;;;;;56.20;33.07;;;12.20;99.90;;;;;;5115435;28;20203;-73
2022/09/16 01:25:35;;;;;;;48.87;31.17;;;12.20;99.90;;;;;;5115363;28;20594;-73
2022/09/16 01:28:24;;;;;;;50.43;31.27;;;12.20;99.90;;;;;;5115424;28;20207;-73
2022/09/16 01:31:02;;;;;;;45.43;29.73;;;12.10;99.90;;;;;;5112915;28;20195;-73
2022/09/16 01:33:41;;;;;;;42.80;27.90;;;12.10;99.90;;;;;;5115016;28;20192;-73
2022/09/16 01:36:26;;;;;;;38.30;25.73;;;12.00;99.90;;;;;;5115315;28;20206;-73
2022/09/16 01:39:06;;;;;;;35.53;24.53;;;12.00;99.90;;;;;;5115086;28;20223;-73
2022/09/16 01:41:45;;;;;;;39.73;25.27;;;12.00;99.90;;;;;;5115068;28;20203;-73
2022/09/16 01:44:19;;;;;;;36.50;26.27;;;11.90;99.90;;;;;;5115174;28;20198;-73
2022/09/16 01:46:50;;;;;;;37.43;26.73;;;12.00;99.90;;;;;;5115223;28;20249;-74
2022/09/16 01:49:24;;;;;;;36.40;24.97;;;12.00;99.90;;;;;;5115045;28;20206;-73
2022/09/16 01:51:57;;;;;;;34.83;23.97;;;12.00;99.90;;;;;;5114818;28;20253;-73
2022/09/16 01:54:30;;;;;;;38.50;24.60;;;12.00;99.90;;;;;;5114579;28;20242;-72
2022/09/16 01:57:02;;;;;;;33.37;23.77;;;12.10;99.90;;;;;;5114548;28;20223;-73
2022/09/16 01:59:36;;;;;;;32.10;23.30;;;12.00;99.90;;;;;;5114523;28;20651;-73
2022/09/16 02:02:09;;;;;;;33.67;23.50;;;12.00;99.90;;;;;;5114628;28;20716;-73
2022/09/16 02:04:40;;;;;;;32.40;23.63;;;12.00;99.90;;;;;;5114409;28;20200;-73
2022/09/16 02:07:10;;;;;;;37.83;23.70;;;12.00;99.90;;;;;;5114737;28;20252;-73
2022/09/16 02:09:41;;;;;;;32.70;23.03;;;12.00;99.90;;;;;;5114584;28;20199;-73
2022/09/16 02:12:13;;;;;;;33.20;23.57;;;12.00;99.90;;;;;;5114322;28;20200;-73
2022/09/16 02:14:42;;;;;;;29.20;22.13;;;12.00;99.90;;;;;;5114415;28;20597;-73
2022/09/16 02:17:13;;;;;;;32.43;22.47;;;12.00;99.90;;;;;;5114145;28;20253;-73
2022/09/16 02:19:43;;;;;;;28.20;22.27;;;11.90;99.90;;;;;;5114461;28;20253;-73
2022/09/16 02:22:13;;;;;;;30.53;20.73;;;11.90;99.90;;;;;;5114314;28;20241;-73
2022/09/16 02:24:41;;;;;;;29.27;20.60;;;11.90;99.90;;;;;;5114208;28;20265;-73
2022/09/16 02:27:13;;;;;;;29.97;20.40;;;11.90;99.90;;;;;;5114106;28;20273;-73
2022/09/16 02:29:44;;;;;;;24.53;18.37;;;11.90;99.90;;;;;;5114076;28;20261;-73
2022/09/16 02:32:13;;;;;;;26.07;18.50;;;11.80;99.90;;;;;;5113863;28;20719;-73
2022/09/16 02:34:43;;;;;;;24.73;17.37;;;11.80;99.90;;;;;;5114093;28;20196;-73
2022/09/16 02:37:17;;;;;;;30.30;17.07;;;11.80;99.90;;;;;;5114073;28;20191;-73
2022/09/16 02:39:46;;;;;;;25.77;18.37;;;11.80;99.90;;;;;;5113882;28;20199;-73
2022/09/16 02:42:13;;;;;;;23.67;17.73;;;11.80;99.90;;;;;;5113818;27;20208;-73
2022/09/16 02:44:40;;;;;;;21.13;17.57;;;11.80;99.90;;;;;;5114025;28;20195;-73
2022/09/16 02:47:14;;;;;;;25.37;17.73;;;11.80;99.90;;;;;;5113860;28;20200;-73
2022/09/16 02:49:48;;;;;;;22.07;18.23;;;11.80;99.90;;;;;;5113904;28;20196;-73
2022/09/16 02:52:21;;;;;;;23.83;18.40;;;11.80;99.90;;;;;;5114021;28;20195;-73
2022/09/16 02:54:53;;;;;;;24.13;18.33;;;11.80;99.90;;;;;;5113864;28;20191;-73
2022/09/16 02:57:20;;;;;;;24.23;19.93;;;11.80;99.90;;;;;;5114129;28;20296;-73
2022/09/16 02:59:47;;;;;;;25.97;19.93;;;11.80;99.90;;;;;;5114124;28;20232;-73
2022/09/16 03:02:15;;;;;;;25.90;19.27;;;11.80;99.90;;;;;;5114243;28;20199;-73
2022/09/16 03:04:41;;;;;;;26.90;19.70;;;11.80;99.90;;;;;;5114151;28;20229;-74
2022/09/16 03:07:10;;;;;;;24.63;18.83;;;11.80;99.90;;;;;;5114813;28;20200;-73
2022/09/16 03:09:41;;;;;;;22.27;17.57;;;11.80;99.90;;;;;;5113928;28;20253;-74
2022/09/16 03:12:19;;;;;;;23.20;18.20;;;11.70;99.90;;;;;;5113659;28;20203;-74
2022/09/16 03:15:09;;;;;;;23.27;17.43;;;11.80;99.90;;;;;;5113295;28;20618;-74
2022/09/16 03:17:57;;;;;;;22.97;17.57;;;11.80;99.90;;;;;;5113300;28;20245;-73
2022/09/16 03:20:33;;;;;;;23.17;17.73;;;11.80;99.90;;;;;;5113395;28;20196;-74
2022/09/16 03:23:11;;;;;;;21.80;17.90;;;11.70;99.90;;;;;;5112969;28;20659;-74
2022/09/16 03:25:45;;;;;;;26.93;19.80;;;11.70;99.90;;;;;;5113591;28;20553;-74
2022/09/16 03:28:15;;;;;;;25.60;19.73;;;11.70;99.90;;;;;;5113452;28;20237;-73
2022/09/16 03:30:50;;;;;;;22.47;18.97;;;11.70;99.90;;;;;;5113536;28;20200;-74
2022/09/16 03:33:25;;;;;;;26.47;19.47;;;11.70;99.90;;;;;;5113450;28;20199;-74
2022/09/16 03:35:57;;;;;;;24.90;19.30;;;11.70;99.90;;;;;;5113374;28;20194;-73
2022/09/16 03:38:24;;;;;;;29.70;18.77;;;11.70;99.90;;;;;;5113129;28;20694;-73
2022/09/16 03:40:51;;;;;;;24.37;19.60;;;11.70;99.90;;;;;;5113364;28;20199;-74
2022/09/16 03:43:18;;;;;;;21.73;18.77;;;11.70;99.90;;;;;;5112988;28;20673;-74
2022/09/16 03:45:45;;;;;;;25.17;18.50;;;11.60;99.90;;;;;;5113155;28;20716;-74
2022/09/16 03:48:12;;;;;;;26.80;18.67;;;11.70;99.90;;;;;;5113021;28;20654;-74
2022/09/16 03:50:40;;;;;;;24.40;17.43;;;11.60;99.90;;;;;;5113159;28;20196;-75
2022/09/16 03:53:07;;;;;;;22.70;17.27;;;11.60;99.90;;;;;;5112910;28;20196;-74
2022/09/16 03:55:34;;;;;;;23.67;18.47;;;11.60;99.90;;;;;;5113033;28;20223;-74
2022/09/16 03:58:00;;;;;;;19.07;15.87;;;11.50;99.90;;;;;;5112779;28;20200;-74
2022/09/16 04:00:28;;;;;;;23.17;16.97;;;11.50;99.90;;;;;;5112919;28;20248;-74
2022/09/16 04:02:55;;;;;;;19.00;16.20;;;11.50;99.90;;;;;;5112849;28;20286;-74
2022/09/16 04:05:21;;;;;;;20.27;15.50;;;11.50;99.90;;;;;;5112910;28;20192;-74
2022/09/16 04:07:50;;;;;;;22.17;14.40;;;11.50;99.90;;;;;;5112826;28;20203;-74
2022/09/16 04:10:17;;;;;;;16.90;13.33;;;11.50;99.90;;;;;;5113063;28;20712;-74
2022/09/16 04:12:43;;;;;;;19.03;13.43;;;11.50;99.90;;;;;;5112813;28;20249;-74
2022/09/16 04:15:11;;;;;;;18.33;13.67;;;11.50;99.90;;;;;;5112818;28;20196;-74
2022/09/16 04:17:38;;;;;;;16.83;12.40;;;11.50;99.90;;;;;;5112732;28;20242;-74
2022/09/16 04:20:07;;;;;;;17.83;12.93;;;11.40;99.90;;;;;;5112541;28;20300;-74
2022/09/16 04:22:34;;;;;;;18.00;12.47;;;11.50;99.90;;;;;;5112946;28;20290;-74
2022/09/16 04:25:02;;;;;;;14.37;11.40;;;11.40;99.90;;;;;;5112882;28;20237;-74
2022/09/16 04:27:29;;;;;;;16.53;11.60;;;11.50;99.90;;;;;;5112781;28;20261;-74
2022/09/16 04:29:55;;;;;;;13.13;11.03;;;11.50;99.90;;;;;;5112746;28;20200;-74
2022/09/16 04:32:22;;;;;;;16.80;12.77;;;11.50;99.90;;;;;;5112930;28;20285;-74
2022/09/16 04:34:49;;;;;;;17.90;13.40;;;11.50;99.90;;;;;;5112611;28;20245;-74
2022/09/16 04:37:15;;;;;;;15.33;12.20;;;11.40;99.90;;;;;;5115688;28;20650;-74
2022/09/16 04:39:42;;;;;;;17.87;11.90;;;11.40;99.90;;;;;;5116368;28;20219;-74
2022/09/16 04:42:11;;;;;;;14.20;12.43;;;11.40;99.90;;;;;;5116081;28;20716;-74
2022/09/16 04:44:38;;;;;;;12.23;10.83;;;11.50;99.90;;;;;;5116465;28;20192;-74
2022/09/16 04:47:04;;;;;;;13.50;10.83;;;11.40;99.90;;;;;;5116118;28;20210;-74
2022/09/16 04:49:31;;;;;;;17.63;10.70;;;11.40;99.90;;;;;;5116129;28;20199;-74
2022/09/16 04:51:58;;;;;;;15.93;11.07;;;11.50;99.90;;;;;;5116236;28;20196;-74
2022/09/16 04:54:25;;;;;;;14.33;9.83;;;11.50;99.90;;;;;;5116154;28;20248;-74
2022/09/16 04:56:51;;;;;;;15.27;10.40;;;11.50;99.90;;;;;;5115766;28;20229;-74
2022/09/16 04:59:20;;;;;;;15.33;9.97;;;11.50;99.90;;;;;;5116300;28;20608;-74
2022/09/16 05:01:47;;;;;;;12.20;10.63;;;11.50;99.90;;;;;;5115793;28;20196;-74
2022/09/16 05:04:14;;;;;;;12.47;9.90;;;11.50;99.90;;;;;;5115723;28;20723;-74
2022/09/16 05:06:43;;;;;;;15.90;12.33;;;11.50;99.90;;;;;;5115954;28;20324;-74
2022/09/16 05:09:10;;;;;;;14.50;10.27;;;11.40;99.90;;;;;;5115829;28;20198;-74
2022/09/16 05:11:39;;;;;;;13.43;10.20;;;11.40;99.90;;;;;;5115661;28;20635;-75
2022/09/16 05:14:07;;;;;;;10.93;9.50;;;11.50;99.90;;;;;;5115705;27;20323;-75
2022/09/16 05:16:35;;;;;;;18.07;10.90;;;11.50;99.90;;;;;;5115393;28;20200;-75
2022/09/16 05:19:03;;;;;;;14.70;10.57;;;11.60;99.90;;;;;;5115659;28;20268;-75
2022/09/16 05:21:33;;;;;;;13.10;8.97;;;11.50;99.90;;;;;;5115600;28;20198;-75
2022/09/16 05:24:01;;;;;;;12.80;9.70;;;11.60;99.90;;;;;;5115617;28;20233;-74
2022/09/16 05:26:30;;;;;;;16.57;9.63;;;11.50;99.90;;;;;;5115209;28;20632;-75
2022/09/16 05:29:00;;;;;;;12.37;9.17;;;11.50;99.90;;;;;;5115079;28;20526;-75
2022/09/16 05:31:29;;;;;;;11.43;9.10;;;11.60;99.90;;;;;;5115559;28;20195;-75
2022/09/16 05:33:58;;;;;;;13.73;9.57;;;11.50;99.90;;;;;;5115406;28;20196;-75
2022/09/16 05:36:27;;;;;;;12.83;8.70;;;11.50;99.90;;;;;;5115325;28;20196;-75
2022/09/16 05:38:53;;;;;;;11.60;8.53;;;11.50;99.90;;;;;;5115204;28;20228;-75
2022/09/16 05:41:20;;;;;;;12.13;9.70;;;11.50;99.90;;;;;;5115609;28;20196;-75
2022/09/16 05:43:47;;;;;;;10.57;8.60;;;11.50;99.90;;;;;;5123203;28;20192;-75
2022/09/16 05:46:18;;;;;;;11.70;7.97;;;11.50;99.90;;;;;;5136667;28;20202;-75
2022/09/16 05:48:45;;;;;;;12.23;8.20;;;11.50;99.90;;;;;;5131280;28;20196;-75
2022/09/16 05:51:15;;;;;;;12.67;8.10;;;11.50;99.90;;;;;;5129517;28;20196;-75
2022/09/16 05:53:42;;;;;;;13.90;8.33;;;11.50;99.90;;;;;;5115783;28;20203;-75
2022/09/16 05:56:12;;;;;;;10.10;8.00;;;11.60;99.90;;;;;;5114335;28;20300;-75
2022/09/16 05:58:40;;;;;;;10.47;8.40;;;11.50;99.90;;;;;;5114818;28;20254;-75
2022/09/16 06:01:08;;;;;;;11.90;8.43;;;11.50;99.90;;;;;;5114590;28;20589;-75
2022/09/16 06:03:36;;;;;;;11.97;8.33;;;11.60;99.90;;;;;;5114509;28;20248;-75
2022/09/16 06:06:05;;;;;;;10.30;8.37;;;11.60;99.90;;;;;;5114575;28;20249;-75
2022/09/16 06:08:34;;;;;;;13.93;7.83;;;11.70;99.90;;;;;;5114471;28;20671;-76
2022/09/16 06:11:02;;;;;;;10.17;6.90;;;11.70;99.90;;;;;;5114415;28;20723;-75
2022/09/16 06:13:29;;;;;;;7.80;6.33;;;11.70;99.90;;;;;;5114379;28;20195;-75
2022/09/16 06:15:55;;;;;;;8.60;6.50;;;11.70;99.90;;;;;;5114378;28;20597;-75
2022/09/16 06:18:23;;;;;;;10.53;7.00;;;11.70;99.90;;;;;;5114330;28;20237;-75
2022/09/16 06:20:50;;;;;;;9.10;6.47;;;11.60;99.90;;;;;;5114033;28;20288;-75
2022/09/16 06:23:17;;;;;;;6.67;5.93;;;11.60;99.90;;;;;;5114155;28;20591;-75
2022/09/16 06:25:46;;;;;;;8.60;6.57;;;11.60;99.90;;;;;;5114076;28;20593;-75
2022/09/16 06:28:13;;;;;;;8.90;5.83;;;11.60;99.90;;;;;;5114103;28;20712;-75
2022/09/16 06:30:40;;;;;;;14.17;5.80;;;11.70;99.90;;;;;;5114147;28;20276;-76
2022/09/16 06:33:10;;;;;;;11.57;5.17;;;11.70;99.90;;;;;;5114041;28;20199;-75
2022/09/16 06:35:36;;;;;;;10.53;5.40;;;11.70;99.90;;;;;;5114019;28;20231;-75
2022/09/16 06:38:03;;;;;;;7.87;4.90;;;11.70;99.90;;;;;;5114234;28;20257;-75
2022/09/16 06:40:29;;;;;;;10.83;5.17;;;11.60;99.90;;;;;;5114085;28;20253;-75
2022/09/16 06:42:59;;;;;;;9.90;5.30;;;11.60;99.90;;;;;;5114076;28;20192;-76
2022/09/16 06:45:28;;;;;;;10.67;5.03;;;11.60;99.90;;;;;;5113865;28;20648;-76
2022/09/16 06:47:58;;;;;;;7.27;4.93;;;11.70;99.90;;;;;;5113817;28;20210;-75
2022/09/16 06:50:25;;;;;;;6.07;4.50;;;11.70;99.90;;;;;;5114117;28;20197;-75
2022/09/16 06:52:52;;;;;;;8.27;4.70;;;11.70;99.90;;;;;;5114078;28;20655;-77
2022/09/16 06:55:18;;;;;;;10.27;4.77;;;11.80;99.90;;;;;;5113950;28;20241;-76
2022/09/16 06:57:45;;;;;;;5.53;4.13;;;11.80;99.90;;;;;;5113558;28;20200;-75
2022/09/16 07:00:14;;;;;;;6.00;3.63;;;11.80;99.90;;;;;;5113170;28;20276;-75
2022/09/16 07:02:40;;;;;;;7.60;3.83;;;11.80;99.90;;;;;;5113566;28;20237;-76
2022/09/16 07:05:08;;;;;;;13.03;4.30;;;11.90;99.90;;;;;;5113627;28;20199;-75
2022/09/16 07:07:35;;;;;;;6.17;3.63;;;11.90;99.90;;;;;;5113668;28;20200;-75
2022/09/16 07:10:02;;;;;;;4.37;3.47;;;11.90;99.90;;;;;;5113660;28;20248;-75
2022/09/16 07:12:29;;;;;;;9.00;3.50;;;11.90;99.90;;;;;;5113566;28;20199;-76
2022/09/16 07:14:55;;;;;;;6.07;3.50;;;12.00;99.90;;;;;;5113546;28;20192;-76
2022/09/16 07:17:26;;;;;;;9.33;4.23;;;12.00;99.90;;;;;;5113396;28;20257;-75
2022/09/16 07:19:52;;;;;;;7.20;3.43;;;12.10;99.90;;;;;;5113451;28;20242;-75
2022/09/16 07:22:19;;;;;;;6.57;3.40;;;12.20;99.90;;;;;;5113464;28;20201;-75
2022/09/16 07:24:45;;;;;;;8.73;3.50;;;12.30;99.90;;;;;;5113439;28;20207;-75
2022/09/16 07:27:13;;;;;;;7.00;3.70;;;12.40;99.90;;;;;;5113252;28;20207;-75
2022/09/16 07:29:40;;;;;;;4.67;3.03;;;12.50;99.90;;;;;;5113090;28;20253;-75
2022/09/16 07:32:07;;;;;;;5.57;3.23;;;12.60;99.90;;;;;;5113122;28;20669;-75
2022/09/16 07:34:35;;;;;;;5.87;3.10;;;12.60;99.90;;;;;;5113375;28;20509;-75
2022/09/16 07:37:01;;;;;;;8.60;3.90;;;12.70;99.90;;;;;;5113276;28;20191;-75
2022/09/16 07:39:28;;;;;;;4.50;3.20;;;12.70;99.90;;;;;;5113501;28;20219;-75
2022/09/16 07:41:55;;;;;;;6.83;3.10;;;12.60;99.90;;;;;;5112834;28;20388;-76
2022/09/16 07:44:23;;;;;;;8.23;3.40;;;12.70;99.90;;;;;;5113023;28;20232;-76
2022/09/16 07:46:50;;;;;;;5.93;3.47;;;12.80;99.90;;;;;;5113298;28;20199;-76
2022/09/16 07:49:17;;;;;;;6.97;2.90;;;12.90;99.90;;;;;;5112856;28;20566;-76
2022/09/16 07:51:45;;;;;;;5.83;3.43;;;12.90;99.90;;;;;;5113124;28;20245;-76
2022/09/16 07:54:13;;;;;;;3.40;2.67;;;12.80;99.90;;;;;;5113023;28;20199;-76
2022/09/16 07:56:40;;;;;;;6.53;2.90;;;12.90;99.90;;;;;;5112911;28;20228;-75
2022/09/16 07:59:10;;;;;;;6.70;2.80;;;12.90;99.90;;;;;;5112836;28;20605;-76
2022/09/16 08:01:37;;;;;;;8.30;3.30;;;12.80;99.90;;;;;;5113173;28;20643;-76
2022/09/16 08:04:04;;;;;;;4.70;2.87;;;12.70;99.90;;;;;;5112862;28;20253;-75
2022/09/16 08:06:32;;;;;;;9.53;3.23;;;12.60;99.90;;;;;;5113050;28;20214;-76
2022/09/16 08:09:01;;;;;;;5.53;3.73;;;12.60;99.90;;;;;;5112870;28;20671;-75
2022/09/16 08:11:28;;;;;;;5.97;2.97;;;12.60;99.90;;;;;;5116352;28;20196;-75
2022/09/16 08:13:57;;;;;;;6.47;3.00;;;12.80;99.90;;;;;;5116961;28;20203;-75
2022/09/16 08:16:23;;;;;;;5.57;2.83;;;12.90;99.90;;;;;;5117043;28;20616;-75
2022/09/16 08:18:52;;;;;;;6.13;2.87;;;13.00;99.90;;;;;;5116845;28;20221;-75
2022/09/16 08:21:22;;;;;;;3.17;2.60;;;13.30;99.90;;;;;;5116775;28;20264;-75
2022/09/16 08:23:48;;;;;;;6.40;2.80;;;13.50;99.90;;;;;;5116785;28;20717;-75
2022/09/16 08:26:18;;;;;;;4.63;2.30;;;13.60;99.90;;;;;;5116932;28;20696;-76
2022/09/16 08:28:46;;;;;;;3.87;2.50;;;13.60;99.90;;;;;;5116737;28;20200;-76
2022/09/16 08:31:13;;;;;;;6.60;2.90;;;13.60;99.90;;;;;;5116564;28;20200;-75
2022/09/16 08:33:40;;;;;;;5.50;2.40;;;13.40;99.90;;;;;;5116704;28;20237;-75
2022/09/16 08:36:13;;;;;;;5.93;2.83;;;13.60;99.90;;;;;;5116910;28;20256;-76
2022/09/16 08:38:39;;;;;;;5.47;2.70;;;13.60;99.90;;;;;;5122263;28;20210;-76
2022/09/16 08:41:20;;;;;;;3.97;2.50;;;13.60;99.90;;;;;;5116973;28;20227;-76
2022/09/16 08:43:56;;;;;;;6.00;3.10;;;13.80;99.90;;;;;;5116585;28;20596;-75
2022/09/16 08:46:30;;;;;;;8.43;2.93;;;13.70;99.90;;;;;;5116963;28;20260;-76
2022/09/16 08:49:02;;;;;;;3.50;2.43;;;13.70;99.90;;;;;;5116312;28;20200;-76
2022/09/16 08:51:29;;;;;;;5.50;2.90;;;13.60;99.90;;;;;;5116516;28;20257;-75
2022/09/16 08:53:59;;;;;;;4.40;2.93;;;13.60;99.90;;;;;;5116726;28;20203;-75
2022/09/16 08:56:30;;;;;;;5.23;3.00;;;13.70;99.90;;;;;;5116369;28;20227;-76
2022/09/16 08:59:00;;;;;;;7.57;2.63;;;13.80;99.90;;;;;;5116216;28;20200;-75
2022/09/16 09:01:38;;;;;;;4.47;2.27;;;13.60;99.90;;;;;;5116005;28;20219;-75
2022/09/16 09:04:05;;;;;;;4.90;2.57;;;13.60;99.90;;;;;;5115892;28;20192;-75
2022/09/16 09:06:50;;;;;;;6.50;2.53;;;13.70;99.90;;;;;;5115891;28;20200;-75
2022/09/16 09:09:33;;;;;;;3.23;2.13;;;13.90;99.90;;;;;;5115848;28;20240;-76
2022/09/16 09:12:07;;;;;;;5.60;2.70;;;14.00;99.90;;;;;;5115947;28;20709;-76
2022/09/16 09:14:43;;;;;;;4.23;2.43;;;13.90;99.90;;;;;;5115772;28;20211;-77
2022/09/16 09:17:22;;;;;;;5.00;2.20;;;13.80;99.90;;;;;;5115729;28;20199;-75
2022/09/16 09:20:03;;;;;;;4.07;2.50;;;13.80;99.90;;;;;;5115691;28;20227;-76
2022/09/16 09:22:48;;;;;;;3.77;2.30;;;13.90;99.90;;;;;;5114496;28;20658;-75
2022/09/16 09:25:25;;;;;;;3.50;2.00;;;14.00;99.90;;;;;;5115846;28;20199;-76
2022/09/16 09:28:04;;;;;;;3.23;2.00;;;14.20;99.90;;;;;;5115633;28;20202;-76
2022/09/16 09:30:34;;;;;;;5.70;2.27;;;14.40;99.90;;;;;;5115261;28;20249;-76
2022/09/16 09:33:11;;;;;;;8.37;2.20;;;14.50;99.90;;;;;;5115706;28;20207;-76
2022/09/16 09:35:50;;;;;;;5.10;2.20;;;14.50;99.90;;;;;;5115402;28;20192;-76
2022/09/16 09:38:42;;;;;;;4.70;2.10;;;14.10;99.90;;;;;;5115314;28;20218;-76
2022/09/16 09:41:12;;;;;;;5.70;2.20;;;14.20;99.90;;;;;;5104505;28;20224;-76
2022/09/16 09:43:44;;;;;;;4.13;2.40;;;14.00;99.90;;;;;;5115458;28;20203;-76
2022/09/16 09:46:17;;;;;;;8.47;2.70;;;14.10;99.90;;;;;;5115164;28;20574;-77
2022/09/16 09:48:48;;;;;;;5.00;2.40;;;14.10;99.90;;;;;;5115312;28;20697;-76
2022/09/16 09:51:22;;;;;;;2.90;2.33;;;14.00;99.90;;;;;;5114871;28;20643;-76
2022/09/16 09:53:53;;;;;;;4.30;2.33;;;14.00;99.90;;;;;;5115289;28;20195;-77
2022/09/16 09:56:24;;;;;;;8.13;2.87;;;14.30;99.90;;;;;;5114734;28;20227;-76
2022/09/16 09:59:01;;;;;;;4.63;2.17;;;14.20;99.90;;;;;;5114913;28;20215;-78
2022/09/16 10:01:28;;;;;;;3.90;2.23;;;14.40;99.90;;;;;;5114873;28;20226;-77
2022/09/16 10:03:57;;;;;;;5.50;2.40;;;14.20;99.90;;;;;;5114579;28;20207;-76
2022/09/16 10:06:28;;;;;;;5.53;2.60;;;14.40;99.90;;;;;;5115004;28;20223;-79
2022/09/16 10:08:57;;;;;;;7.77;2.50;;;14.70;99.90;;;;;;5115009;28;20286;-76
2022/09/16 10:11:27;;;;;;;4.23;2.40;;;14.70;99.90;;;;;;5114632;28;20282;-77
2022/09/16 10:13:57;;;;;;;5.97;2.47;;;14.70;99.90;;;;;;5114546;28;20196;-77
2022/09/16 10:16:28;;;;;;;3.73;2.47;;;14.70;99.90;;;;;;5114396;28;20597;-77
2022/09/16 10:19:02;;;;;;;5.27;2.37;;;14.60;99.90;;;;;;5114564;28;20245;-76
2022/09/16 10:21:40;;;;;;;4.43;2.20;;;14.50;99.90;;;;;;5114055;28;20230;-76
2022/09/16 10:24:28;;;;;;;4.47;2.97;;;14.00;99.90;;;;;;5114555;28;20763;-76
2022/09/16 10:26:55;;;;;;;5.27;2.83;;;14.00;99.90;;;;;;5114175;28;20196;-76
2022/09/16 10:29:23;;;;;;;3.90;2.67;;;14.00;99.90;;;;;;5114294;28;20199;-76
2022/09/16 10:31:50;;;;;;;3.83;2.40;;;14.10;99.90;;;;;;5114201;28;20195;-76
2022/09/16 10:34:26;;;;;;;9.87;3.47;;;14.30;99.90;;;;;;5114298;28;20200;-76
2022/09/16 10:37:04;;;;;;;4.33;2.97;;;14.40;99.90;;;;;;5114386;28;20192;-77
2022/09/16 10:39:32;;;;;;;5.53;2.80;;;14.40;99.90;;;;;;5114191;28;20188;-76
2022/09/16 10:41:59;;;;;;;5.67;3.03;;;14.40;99.90;;;;;;5114163;28;20230;-76
2022/09/16 10:44:29;;;;;;;6.77;2.90;;;14.50;99.90;;;;;;5114235;28;20195;-76
2022/09/16 10:47:00;;;;;;;3.50;2.70;;;14.40;99.90;;;;;;5114173;28;20199;-76
2022/09/16 10:49:35;;;;;;;4.13;2.70;;;14.10;99.90;;;;;;5113872;28;20195;-77
2022/09/16 10:52:14;;;;;;;4.50;3.37;;;14.20;99.90;;;;;;5113563;28;20199;-77
2022/09/16 10:54:41;;;;;;;4.10;2.80;;;14.00;99.90;;;;;;5113719;28;20203;-76
2022/09/16 10:57:24;;;;;;;6.77;3.07;;;14.00;99.90;;;;;;5113447;28;20228;-78
2022/09/16 11:00:00;;;;;;;4.57;3.37;;;13.80;99.90;;;;;;5113525;28;20202;-77
2022/09/16 11:02:44;;;;;;;6.13;3.90;;;14.20;99.90;;;;;;5113468;28;20199;-77
2022/09/16 11:05:17;;;;;;;8.60;4.57;;;14.20;99.90;;;;;;5113664;28;20338;-77
2022/09/16 11:07:52;;;;;;;5.93;4.67;;;14.00;99.90;;;;;;5113546;28;20291;-77
2022/09/16 11:10:26;;;;;;;7.53;4.50;;;13.80;99.90;;;;;;5113398;28;20252;-76
2022/09/16 11:13:18;;;;;;;10.43;4.93;;;13.90;99.90;;;;;;5113710;28;20247;-76
2022/09/16 11:16:03;;;;;;;7.47;5.00;;;14.10;99.90;;;;;;5113508;28;20196;-76
2022/09/16 11:18:46;;;;;;;5.33;4.83;;;14.00;99.90;;;;;;5113419;28;20198;-78
2022/09/16 11:21:28;;;;;;;10.13;5.33;;;13.80;99.90;;;;;;5113403;28;20231;-76
2022/09/16 11:24:11;;;;;;;6.87;5.77;;;14.00;99.90;;;;;;5120680;28;20199;-77
2022/09/16 11:26:49;;;;;;;6.63;5.13;;;14.30;99.90;;;;;;5113990;28;20256;-77
2022/09/16 11:29:38;;;;;;;5.97;5.07;;;14.40;99.90;;;;;;5114326;28;20203;-77
2022/09/16 11:32:16;;;;;;;8.30;5.30;;;14.30;99.90;;;;;;5114691;28;20707;-77
2022/09/16 11:34:56;;;;;;;6.67;5.43;;;14.10;99.90;;;;;;5114412;28;20199;-77
2022/09/16 11:37:30;;;;;;;8.77;5.40;;;14.10;99.90;;;;;;5113077;28;20573;-77
2022/09/16 11:40:11;;;;;;;6.00;5.40;;;13.70;99.90;;;;;;5113262;28;20663;-74
2022/09/16 11:42:42;;;;;;;7.27;4.57;;;13.80;99.90;;;;;;5113307;28;20226;-75
2022/09/16 11:45:28;;;;;;;6.60;5.20;;;13.80;99.90;;;;;;5114751;28;20195;-77
2022/09/16 11:48:18;;;;;;;7.53;5.23;;;13.80;99.90;;;;;;5117283;28;20221;-74
2022/09/16 11:50:50;;;;;;;5.97;4.77;;;13.80;99.90;;;;;;5117425;28;20199;-75
2022/09/16 11:53:39;;;;;;;6.60;4.90;;;13.90;99.90;;;;;;5117157;28;20227;-75
2022/09/16 11:56:11;;;;;;;5.97;4.77;;;14.00;99.90;;;;;;5117010;28;20223;-75
2022/09/16 11:58:45;;;;;;;5.87;4.47;;;13.90;99.90;;;;;;5117485;28;20188;-75
2022/09/16 12:01:30;;;;;;;6.73;4.90;;;13.90;99.90;;;;;;5117444;28;20223;-75
2022/09/16 12:04:04;;;;;;;7.13;4.37;;;13.90;99.90;;;;;;5116873;28;20655;-75
2022/09/16 12:06:40;;;;;;;8.43;4.70;;;14.00;99.90;;;;;;5116913;28;20665;-75
2022/09/16 12:09:13;;;;;;;5.97;4.67;;;14.10;99.90;;;;;;5116840;28;20528;-75
2022/09/16 12:11:46;;;;;;;5.63;3.83;;;14.50;99.90;;;;;;5117096;28;20249;-76
2022/09/16 12:14:16;;;;;;;6.27;3.90;;;14.70;99.90;;;;;;5116872;28;20203;-76
2022/09/16 12:16:47;;;;;;;5.07;3.50;;;14.90;99.90;;;;;;5116757;28;20246;-76
2022/09/16 12:19:21;;;;;;;4.17;3.57;;;15.60;99.90;;;;;;5116635;28;20200;-75
2022/09/16 12:21:52;;;;;;;6.90;3.47;;;16.10;99.90;;;;;;5116915;28;20223;-76
2022/09/16 12:24:26;;;;;;;4.80;3.30;;;15.40;99.90;;;;;;5116599;28;20662;-76
2022/09/16 12:26:57;;;;;;;5.60;3.00;;;15.50;99.90;;;;;;5116567;28;20196;-76
2022/09/16 12:29:31;;;;;;;4.07;3.07;;;15.40;99.90;;;;;;5116582;28;20237;-76
2022/09/16 12:32:03;;;;;;;8.33;3.77;;;15.30;99.90;;;;;;5116446;28;20210;-76
2022/09/16 12:34:37;;;;;;;6.87;3.97;;;15.40;99.90;;;;;;5116465;28;20673;-78
2022/09/16 12:37:23;;;;;;;4.47;3.33;;;15.30;99.90;;;;;;5116387;28;20195;-75
2022/09/16 12:39:50;;;;;;;6.50;3.67;;;15.50;99.90;;;;;;5116256;28;20207;-75
2022/09/16 12:42:56;;;;;;;7.27;4.43;;;15.20;99.90;;;;;;5116294;28;20752;-75
2022/09/16 12:45:52;;;;;;;7.50;3.60;;;15.20;99.90;;;;;;5116395;28;20195;-75
2022/09/16 12:48:40;;;;;;;8.20;4.13;;;15.10;99.90;;;;;;5116215;28;20199;-76
2022/09/16 12:51:30;;;;;;;4.27;3.40;;;15.10;99.90;;;;;;5116471;27;20206;-76
2022/09/16 12:54:27;;;;;;;5.73;3.67;;;15.30;99.90;;;;;;5116214;28;20221;-77
2022/09/16 12:57:14;;;;;;;6.27;3.30;;;15.30;99.90;;;;;;5114211;28;20232;-75
2022/09/16 13:00:06;;;;;;;6.50;3.17;;;16.00;99.90;;;;;;5116157;28;20286;-75
2022/09/16 13:02:37;;;;;;;4.55;2.88;;;18.70;99.90;;;;;;5115840;28;20590;-78